Main page
METAR-TAF:

METAR-TAF

Airports :

Cherif Al Idrissi Airport

Al Hoceima, Morocco

latitude: 35-11N, longitude: 003-51W, elevation: 27 m

Current weather observation

The report was made 16 minutes ago, at 04:00 UTC
Wind 8 kt from the East/Northeast
Temperature 20°C
Humidity 73%
Pressure 1021 hPa
Visibility 10 km or more
Scattered clouds at a height of 2600 ft

METAR: GMTA 260400Z 06008KT 9999 SCT026 20/15 Q1021 NOSIG

Time: 05:16 (04:16 UTC)

Forecast

The report was made 5 hours and 16 minutes ago, at 23:00 UTC
Forecast valid from 26 at 00 UTC to 27 at 06 UTC
Wind 4 kt from the East/Northeast
Visibility 10 km or more
no clouds below 1500 m and no cumulonimbus

TAF: GMTA 252300Z 2600/2706 06004KT CAVOK

Weather observations and forecasts of more than 4000 airports (METAR and TAF reports).

The available stations are represented by yellow and red dots on the map.

Hover mouse over dot to see the name of the station.

Then click to see weather observations and forecasts.

To change the map : click on the green buttons with a black cross to zoom in, on the green button with a dash to zoom out, or on the green arrows for adjacent maps.


METAR-TAF: